Time;durP1;ratioP1;P1;durP2;ratioP2;P2;SDS_P1;SDS_P2;PMS_P1;PMS_P2;Temp;Humidity;BMP_temperature;BMP_pressure;BME280_temperature;BME280_humidity;BME280_pressure;Samples;Min_cycle;Max_cycle;Signal;HPM_P1;HPM_P2
2021/11/12 00:02:14;;;;;;;77.53;35.40;;;3.30;99.90;;;;;;5050728;28;20459;-65
2021/11/12 00:11:46;;;;;;;76.37;34.83;;;3.20;99.90;;;;;;5050751;28;20441;-65
2021/11/12 00:13:17;;;;;;;91.83;36.93;;;3.20;99.90;;;;;;5050487;28;20590;-65
2021/11/12 00:15:47;;;;;;;73.63;34.17;;;3.20;99.90;;;;;;5050416;28;20477;-65
2021/11/12 00:18:14;;;;;;;50.90;34.17;;;3.20;99.90;;;;;;5049499;28;20451;-65
2021/11/12 00:20:41;;;;;;;107.63;38.73;;;3.20;99.90;;;;;;5050386;28;20443;-64
2021/11/12 00:23:08;;;;;;;106.37;37.60;;;3.30;99.90;;;;;;5049999;28;20975;-65
2021/11/12 00:25:36;;;;;;;92.73;37.80;;;3.20;99.90;;;;;;5050403;28;20474;-65
2021/11/12 00:28:03;;;;;;;115.00;37.53;;;3.10;99.90;;;;;;5049151;28;20551;-64
2021/11/12 00:30:38;;;;;;;83.73;35.13;;;3.10;99.90;;;;;;5050357;28;20440;-65
2021/11/12 00:33:19;;;;;;;94.83;40.07;;;3.10;99.90;;;;;;5050100;28;20598;-64
2021/11/12 00:35:49;;;;;;;134.37;43.03;;;3.20;99.90;;;;;;5050283;28;20467;-65
2021/11/12 00:38:18;;;;;;;95.63;36.17;;;3.20;99.90;;;;;;5049124;28;20526;-65
2021/11/12 00:40:55;;;;;;;58.03;33.57;;;3.30;99.90;;;;;;5050068;28;20448;-64
2021/11/12 00:43:32;;;;;;;80.23;38.50;;;3.30;99.90;;;;;;5050032;28;20534;-65
2021/11/12 00:46:10;;;;;;;63.33;36.50;;;3.30;99.90;;;;;;5049572;28;20517;-65
2021/11/12 00:48:41;;;;;;;91.57;38.60;;;3.40;99.90;;;;;;5049205;28;20448;-65
2021/11/12 00:51:14;;;;;;;56.73;33.33;;;3.30;99.90;;;;;;5049913;28;20445;-65
2021/11/12 00:53:57;;;;;;;59.53;33.20;;;3.20;99.90;;;;;;5049845;28;20462;-65
2021/11/12 00:56:27;;;;;;;73.07;37.20;;;3.30;99.90;;;;;;5048926;28;20472;-65
2021/11/12 00:58:56;;;;;;;74.53;35.47;;;3.20;99.90;;;;;;5049408;28;20458;-65
2021/11/12 01:01:24;;;;;;;62.87;35.90;;;3.30;99.90;;;;;;5049908;28;20838;-65
2021/11/12 01:03:52;;;;;;;66.30;36.73;;;3.40;99.90;;;;;;5049761;28;20452;-64
2021/11/12 01:06:20;;;;;;;70.57;38.27;;;3.40;99.90;;;;;;5049081;28;20467;-64
2021/11/12 01:08:47;;;;;;;79.40;36.93;;;3.40;99.90;;;;;;5049456;28;20816;-65
2021/11/12 01:11:16;;;;;;;74.57;36.70;;;3.40;99.90;;;;;;5049443;28;20463;-65
2021/11/12 01:13:47;;;;;;;95.17;39.23;;;3.30;99.90;;;;;;5050055;28;20436;-64
2021/11/12 01:16:16;;;;;;;96.80;38.70;;;3.30;99.90;;;;;;5049432;28;20470;-63
2021/11/12 01:18:44;;;;;;;90.23;35.87;;;3.30;99.90;;;;;;5049798;28;20865;-64
2021/11/12 01:21:14;;;;;;;94.67;37.87;;;3.30;99.90;;;;;;5048435;28;20463;-65
2021/11/12 01:23:45;;;;;;;100.33;38.60;;;3.30;99.90;;;;;;5048946;28;20445;-65
2021/11/12 01:26:13;;;;;;;80.37;37.70;;;3.30;99.90;;;;;;5049323;28;20496;-64
2021/11/12 01:28:41;;;;;;;54.40;35.40;;;3.40;99.90;;;;;;5049113;28;20444;-65
2021/11/12 01:31:11;;;;;;;70.80;38.07;;;3.40;99.90;;;;;;5049346;28;20539;-63
2021/11/12 01:33:38;;;;;;;52.27;33.80;;;3.40;99.90;;;;;;5049559;28;20851;-65
2021/11/12 01:36:14;;;;;;;91.00;37.37;;;3.40;99.90;;;;;;5049104;28;20835;-64
2021/11/12 01:38:41;;;;;;;73.40;33.00;;;3.30;99.90;;;;;;5049071;28;20453;-65
2021/11/12 01:41:07;;;;;;;63.97;34.60;;;3.10;99.90;;;;;;5049290;28;20456;-64
2021/11/12 01:43:40;;;;;;;77.03;34.20;;;3.10;99.90;;;;;;5049531;28;20441;-65
2021/11/12 01:49:01;;;;;;;153.13;40.67;;;3.10;99.90;;;;;;5046222;28;20440;-63
2021/11/12 01:51:37;;;;;;;101.50;36.93;;;3.10;99.90;;;;;;5049338;28;20450;-65
2021/11/12 01:54:22;;;;;;;131.97;39.83;;;3.20;99.90;;;;;;5049201;28;20447;-64
2021/11/12 01:56:58;;;;;;;103.03;40.93;;;3.20;99.90;;;;;;5048058;28;20467;-65
2021/11/12 01:59:25;;;;;;;102.23;36.87;;;3.10;99.90;;;;;;5052939;28;20453;-65
2021/11/12 02:01:57;;;;;;;82.73;37.90;;;3.10;99.90;;;;;;5053053;28;20448;-65
2021/11/12 02:04:26;;;;;;;69.10;38.20;;;3.00;99.90;;;;;;5052895;28;20447;-65
2021/11/12 02:06:54;;;;;;;161.30;45.57;;;3.10;99.90;;;;;;5051731;28;20921;-64
2021/11/12 02:09:22;;;;;;;118.47;42.33;;;3.10;99.90;;;;;;5052522;28;20450;-65
2021/11/12 02:11:52;;;;;;;103.40;41.70;;;3.10;99.90;;;;;;5052734;28;20487;-65
2021/11/12 02:14:20;;;;;;;70.30;37.07;;;3.20;99.90;;;;;;5052749;28;20525;-65
2021/11/12 02:16:59;;;;;;;81.83;38.50;;;3.20;99.90;;;;;;5051752;28;20475;-65
2021/11/12 02:19:27;;;;;;;113.33;42.23;;;3.30;99.90;;;;;;5052738;28;20879;-65
2021/11/12 02:22:07;;;;;;;134.03;41.93;;;3.20;99.90;;;;;;5052535;28;20447;-64
2021/11/12 02:24:39;;;;;;;92.53;36.90;;;3.10;99.90;;;;;;5052439;28;20481;-65
2021/11/12 02:27:09;;;;;;;105.80;39.73;;;3.20;99.90;;;;;;5051410;28;20522;-65
2021/11/12 02:29:40;;;;;;;130.60;38.67;;;3.20;99.90;;;;;;5052469;28;20811;-65
2021/11/12 02:32:15;;;;;;;131.00;41.57;;;3.10;99.90;;;;;;5052415;28;20982;-65
2021/11/12 02:34:42;;;;;;;77.33;37.67;;;3.10;99.90;;;;;;5052195;28;21003;-64
2021/11/12 02:37:10;;;;;;;98.03;41.47;;;3.10;99.90;;;;;;5051405;28;20545;-65
2021/11/12 02:39:37;;;;;;;166.93;43.60;;;3.20;99.90;;;;;;5052162;28;20539;-65
2021/11/12 02:42:06;;;;;;;154.30;43.27;;;3.20;99.90;;;;;;5052195;28;20445;-65
2021/11/12 02:44:35;;;;;;;118.80;41.13;;;3.30;99.90;;;;;;5052295;28;20451;-64
2021/11/12 02:47:02;;;;;;;133.70;42.20;;;3.30;99.90;;;;;;5050634;28;20946;-64
2021/11/12 02:49:29;;;;;;;117.60;41.30;;;3.20;99.90;;;;;;5052246;28;20458;-65
2021/11/12 02:51:56;;;;;;;89.07;39.57;;;3.20;99.90;;;;;;5051860;28;20952;-64
2021/11/12 02:54:24;;;;;;;107.40;42.80;;;3.10;99.90;;;;;;5052125;28;20473;-65
2021/11/12 02:56:54;;;;;;;181.20;44.60;;;3.10;99.90;;;;;;5050658;28;20559;-65
2021/11/12 02:59:21;;;;;;;145.57;44.40;;;3.10;99.90;;;;;;5051982;28;20448;-65
2021/11/12 03:01:48;;;;;;;67.73;38.17;;;3.10;99.90;;;;;;5052056;28;20448;-64
2021/11/12 03:04:16;;;;;;;95.43;38.50;;;3.20;99.90;;;;;;5052058;28;20448;-65
2021/11/12 03:06:44;;;;;;;120.83;40.10;;;3.30;99.90;;;;;;5050596;28;20464;-64
2021/11/12 03:09:11;;;;;;;68.13;34.23;;;3.20;99.90;;;;;;5051391;28;20453;-62
2021/11/12 03:11:41;;;;;;;81.03;38.40;;;3.20;99.90;;;;;;5051500;28;20452;-65
2021/11/12 03:14:10;;;;;;;89.43;38.87;;;3.20;99.90;;;;;;5051762;28;20493;-64
2021/11/12 03:16:37;;;;;;;86.37;38.83;;;3.20;99.90;;;;;;5050438;28;20941;-65
2021/11/12 03:19:08;;;;;;;149.17;40.90;;;3.30;99.90;;;;;;5051452;28;20457;-65
2021/11/12 03:21:37;;;;;;;102.27;38.97;;;3.20;99.90;;;;;;5051902;28;20451;-66
2021/11/12 03:24:07;;;;;;;109.67;40.10;;;3.10;99.90;;;;;;5051826;28;20464;-65
2021/11/12 03:26:39;;;;;;;113.70;38.37;;;3.00;99.90;;;;;;5050284;28;20510;-65
2021/11/12 03:29:39;;;;;;;68.00;36.47;;;2.90;99.90;;;;;;5051535;28;20469;-63
2021/11/12 03:59:56;;;;;;;90.73;39.80;;;3.00;99.90;;;;;;5017649;28;20424;-65
2021/11/12 04:02:42;;;;;;;76.43;37.00;;;3.10;99.90;;;;;;5051261;28;20502;-64
2021/11/12 04:05:19;;;;;;;72.17;35.40;;;3.10;99.90;;;;;;5050855;28;20444;-65
2021/11/12 04:18:52;;;;;;;73.47;35.33;;;3.30;99.90;;;;;;5050280;28;20418;-64
2021/11/12 05:11:05;;;;;;;44.50;28.17;;;2.90;99.90;;;;;;5033570;28;20454;-64
2021/11/12 05:13:49;;;;;;;60.40;30.87;;;3.00;99.90;;;;;;5049482;28;20482;-64
2021/11/12 05:43:53;;;;;;;52.47;27.70;;;2.50;99.90;;;;;;5053238;28;20418;-63
2021/11/12 05:51:58;;;;;;;43.03;28.27;;;2.60;99.90;;;;;;5053057;28;20422;-62
2021/11/12 05:57:11;;;;;;;44.70;28.53;;;2.60;99.90;;;;;;5052045;28;21142;-64
2021/11/12 05:59:38;;;;;;;46.83;28.73;;;2.70;99.90;;;;;;5053060;28;20453;-64
2021/11/12 06:02:05;;;;;;;44.20;26.50;;;2.70;99.90;;;;;;5052804;28;20452;-62
2021/11/12 06:04:32;;;;;;;36.77;26.80;;;2.70;99.90;;;;;;5052745;28;20452;-64
2021/11/12 06:06:59;;;;;;;42.60;26.37;;;2.70;99.90;;;;;;5051278;28;20489;-63
2021/11/12 06:09:26;;;;;;;46.50;29.73;;;2.80;99.90;;;;;;5052217;28;20443;-63
2021/11/12 06:11:54;;;;;;;49.63;26.20;;;2.70;99.90;;;;;;5050612;28;20847;-63
2021/11/12 06:14:22;;;;;;;46.00;28.53;;;2.70;99.90;;;;;;5049054;28;20485;-63
2021/11/12 06:16:50;;;;;;;49.47;29.50;;;2.70;99.90;;;;;;5047998;28;20475;-64
2021/11/12 06:19:17;;;;;;;46.87;28.80;;;2.80;99.90;;;;;;5048262;28;21036;-63
2021/11/12 06:21:44;;;;;;;41.47;26.80;;;2.70;99.90;;;;;;5050572;28;20446;-63
2021/11/12 06:24:11;;;;;;;58.13;26.83;;;2.70;99.90;;;;;;5050747;28;20446;-62
2021/11/12 06:26:38;;;;;;;47.00;27.70;;;2.70;99.90;;;;;;5050185;28;20902;-63
2021/11/12 06:29:05;;;;;;;38.83;26.07;;;2.70;99.90;;;;;;5052415;28;20543;-63
2021/11/12 06:31:34;;;;;;;40.77;25.87;;;2.70;99.90;;;;;;5049206;28;20467;-64
2021/11/12 06:34:01;;;;;;;44.83;25.90;;;2.70;99.90;;;;;;5051150;28;20483;-62
2021/11/12 06:36:29;;;;;;;58.53;27.17;;;2.70;99.90;;;;;;5051434;28;20479;-62
2021/11/12 06:38:56;;;;;;;57.57;26.47;;;2.70;99.90;;;;;;5051734;28;20857;-63
2021/11/12 06:41:54;;;;;;;49.47;26.73;;;2.60;99.90;;;;;;5052375;28;20451;-62
2021/11/12 06:49:55;;;;;;;73.83;31.20;;;2.40;99.90;;;;;;5050719;28;20478;-63
2021/11/12 06:52:25;;;;;;;79.53;27.47;;;2.40;99.90;;;;;;5052021;28;20456;-62
2021/11/12 06:54:53;;;;;;;66.53;27.50;;;2.40;99.90;;;;;;5047875;28;20967;-63
2021/11/12 06:57:21;;;;;;;43.87;26.60;;;2.40;99.90;;;;;;5050297;28;20988;-61
2021/11/12 06:59:49;;;;;;;49.50;28.80;;;2.50;99.90;;;;;;5051653;28;20443;-62
2021/11/12 07:02:21;;;;;;;42.90;28.57;;;2.50;99.90;;;;;;5050800;28;20437;-63
2021/11/12 07:04:49;;;;;;;50.80;29.17;;;2.60;99.90;;;;;;5048806;28;20478;-65
2021/11/12 07:07:16;;;;;;;60.10;29.60;;;2.70;99.90;;;;;;5049328;28;20459;-62
2021/11/12 07:09:46;;;;;;;75.40;29.73;;;2.80;99.90;;;;;;5051877;28;20443;-63
2021/11/12 07:12:14;;;;;;;46.30;28.50;;;2.80;99.90;;;;;;5051440;28;20975;-63
2021/11/12 07:14:41;;;;;;;64.90;30.73;;;2.80;99.90;;;;;;5050256;28;20502;-64
2021/11/12 07:17:08;;;;;;;40.60;29.30;;;2.90;99.90;;;;;;5050040;28;20989;-62
2021/11/12 07:19:37;;;;;;;81.03;33.63;;;2.90;99.90;;;;;;5051505;28;20456;-64
2021/11/12 07:22:04;;;;;;;52.53;29.50;;;2.90;99.90;;;;;;5051313;28;20451;-64
2021/11/12 07:24:31;;;;;;;49.00;30.87;;;2.90;99.90;;;;;;5051271;28;20447;-65
2021/11/12 07:26:59;;;;;;;42.53;28.40;;;3.00;99.90;;;;;;5050034;28;20550;-63
2021/11/12 07:29:27;;;;;;;57.63;30.03;;;3.10;99.90;;;;;;5051259;28;20479;-62
2021/11/12 07:31:56;;;;;;;47.87;28.30;;;3.20;99.90;;;;;;5051313;28;20447;-63
2021/11/12 07:34:25;;;;;;;47.50;30.17;;;3.20;99.90;;;;;;5050994;28;20487;-64
2021/11/12 07:36:55;;;;;;;44.97;29.67;;;3.20;99.90;;;;;;5049876;28;20472;-63
2021/11/12 07:39:25;;;;;;;75.13;32.27;;;3.30;99.90;;;;;;5051218;28;20451;-63
2021/11/12 07:44:40;;;;;;;49.20;31.40;;;3.30;99.90;;;;;;5048188;28;20435;-64
2021/11/12 07:47:12;;;;;;;63.57;32.87;;;3.40;99.90;;;;;;5049897;28;20549;-61
2021/11/12 07:49:40;;;;;;;84.37;32.80;;;3.40;99.90;;;;;;5050928;28;20808;-65
2021/11/12 07:52:10;;;;;;;44.60;29.33;;;3.40;99.90;;;;;;5050938;28;20445;-63
2021/11/12 07:54:37;;;;;;;50.77;28.80;;;3.50;99.90;;;;;;5050322;28;20573;-64
2021/11/12 07:57:05;;;;;;;54.00;32.53;;;3.50;99.90;;;;;;5049083;28;20486;-64
2021/11/12 07:59:32;;;;;;;51.90;32.87;;;3.60;99.90;;;;;;5050629;28;20574;-64
2021/11/12 08:01:59;;;;;;;47.50;31.47;;;3.70;99.90;;;;;;5050632;28;20485;-64
2021/11/12 08:04:27;;;;;;;41.33;29.67;;;3.70;99.90;;;;;;5050569;28;20455;-64
2021/11/12 08:06:55;;;;;;;38.60;27.57;;;3.60;99.90;;;;;;5049363;28;20478;-65
2021/11/12 08:09:26;;;;;;;37.77;27.90;;;3.60;99.90;;;;;;5050547;28;20526;-64
2021/11/12 08:11:56;;;;;;;43.83;30.57;;;3.60;99.90;;;;;;5050309;28;20832;-64
2021/11/12 08:14:26;;;;;;;41.90;30.40;;;3.70;99.90;;;;;;5050534;28;20928;-63
2021/11/12 08:17:07;;;;;;;43.47;30.93;;;3.60;99.90;;;;;;5049252;28;20563;-65
2021/11/12 08:19:38;;;;;;;39.27;25.67;;;3.60;99.90;;;;;;5048171;28;20455;-64
2021/11/12 08:22:08;;;;;;;35.80;25.50;;;3.70;99.90;;;;;;5050340;28;20444;-65
2021/11/12 08:24:44;;;;;;;34.30;26.27;;;3.80;99.90;;;;;;5050289;28;20452;-64
2021/11/12 08:27:34;;;;;;;33.50;25.53;;;4.00;99.90;;;;;;5048930;28;20521;-64
2021/11/12 08:30:13;;;;;;;33.90;24.57;;;4.10;99.90;;;;;;5050179;28;20817;-63
2021/11/12 08:32:58;;;;;;;38.90;27.77;;;4.10;99.90;;;;;;5050324;28;20448;-65
2021/11/12 08:35:34;;;;;;;32.30;24.40;;;4.10;99.90;;;;;;5049996;28;20466;-65
2021/11/12 08:38:08;;;;;;;32.53;24.50;;;4.20;99.90;;;;;;5049147;28;20479;-66
2021/11/12 08:40:47;;;;;;;34.53;25.53;;;4.20;99.90;;;;;;5050188;28;20477;-64
2021/11/12 08:43:17;;;;;;;40.90;29.50;;;4.20;99.90;;;;;;5050129;28;20836;-65
2021/11/12 08:45:55;;;;;;;34.23;25.93;;;4.30;99.90;;;;;;5049782;28;21063;-64
2021/11/12 08:48:26;;;;;;;41.80;26.80;;;4.30;99.90;;;;;;5048953;28;20456;-64
2021/11/12 08:50:52;;;;;;;37.07;27.50;;;4.40;99.90;;;;;;5049890;28;20455;-65
2021/11/12 08:53:20;;;;;;;31.37;25.10;;;4.30;99.90;;;;;;5050047;28;20448;-65
2021/11/12 08:55:48;;;;;;;34.73;25.27;;;4.30;99.90;;;;;;5049778;28;20468;-65
2021/11/12 08:58:15;;;;;;;39.70;26.90;;;4.30;99.90;;;;;;5048535;28;20444;-63
2021/11/12 09:00:44;;;;;;;35.03;25.80;;;4.40;99.90;;;;;;5049554;28;20454;-65
2021/11/12 09:03:11;;;;;;;41.37;26.33;;;4.50;99.90;;;;;;5049691;28;21121;-64
2021/11/12 09:05:38;;;;;;;35.80;25.80;;;4.50;99.90;;;;;;5049677;28;20518;-63
2021/11/12 09:08:05;;;;;;;36.63;26.70;;;4.50;99.90;;;;;;5048190;28;21054;-63
2021/11/12 09:10:32;;;;;;;33.80;25.37;;;4.50;99.90;;;;;;5049406;28;20518;-63
2021/11/12 09:13:10;;;;;;;33.60;27.80;;;4.60;99.90;;;;;;5049607;28;20821;-64
2021/11/12 09:15:37;;;;;;;41.70;28.13;;;4.70;99.90;;;;;;5049737;28;20459;-64
2021/11/12 09:18:04;;;;;;;34.20;27.17;;;4.60;99.90;;;;;;5048504;28;20527;-65
2021/11/12 09:20:32;;;;;;;32.13;26.53;;;4.70;99.90;;;;;;5049679;28;20454;-63
2021/11/12 09:23:00;;;;;;;33.97;25.50;;;4.40;99.90;;;;;;5049806;28;20436;-63
2021/11/12 09:25:28;;;;;;;34.57;24.30;;;4.50;99.90;;;;;;5049463;28;20492;-63
2021/11/12 09:27:54;;;;;;;35.87;25.10;;;4.50;99.90;;;;;;5048296;28;20502;-60
2021/11/12 09:30:34;;;;;;;39.03;26.93;;;4.50;99.90;;;;;;5049691;28;20444;-63
2021/11/12 09:33:00;;;;;;;34.33;26.00;;;4.60;99.90;;;;;;5049584;28;20468;-63
2021/11/12 09:35:27;;;;;;;34.53;26.27;;;4.50;99.90;;;;;;5049361;28;20488;-63
2021/11/12 09:37:54;;;;;;;38.33;27.30;;;4.60;99.90;;;;;;5048163;28;20455;-63
2021/11/12 09:40:21;;;;;;;30.03;25.17;;;4.60;99.90;;;;;;5049323;28;20456;-63
2021/11/12 09:42:49;;;;;;;37.50;26.80;;;4.80;99.90;;;;;;5049869;28;20445;-63
2021/11/12 09:45:17;;;;;;;48.20;28.20;;;4.90;99.90;;;;;;5049496;28;20441;-64
2021/11/12 09:47:46;;;;;;;35.93;26.30;;;4.80;99.90;;;;;;5048476;28;20444;-64
2021/11/12 09:50:17;;;;;;;40.10;27.20;;;4.50;99.90;;;;;;5049470;28;21118;-64
2021/11/12 09:52:45;;;;;;;40.93;29.83;;;4.70;99.90;;;;;;5049372;28;20459;-63
2021/11/12 09:55:13;;;;;;;35.07;27.17;;;4.80;99.90;;;;;;5049168;28;20480;-64
2021/11/12 09:57:41;;;;;;;35.30;27.03;;;4.70;99.90;;;;;;5048368;28;20440;-63
2021/11/12 10:00:11;;;;;;;46.63;29.60;;;4.70;99.90;;;;;;5049251;28;20490;-64
2021/11/12 10:02:42;;;;;;;49.30;28.50;;;4.40;99.90;;;;;;5049367;28;20466;-62
2021/11/12 10:05:12;;;;;;;43.10;29.97;;;4.30;99.90;;;;;;5049056;28;20444;-63
2021/11/12 10:07:40;;;;;;;44.77;30.10;;;4.30;99.90;;;;;;5048422;28;20483;-64
2021/11/12 10:10:09;;;;;;;43.53;31.57;;;4.50;99.90;;;;;;5048893;28;20543;-61
2021/11/12 10:12:38;;;;;;;49.33;30.27;;;4.70;99.90;;;;;;5049166;28;20502;-61
2021/11/12 10:15:11;;;;;;;41.33;29.30;;;4.90;99.90;;;;;;5048934;28;20494;-63
2021/11/12 10:17:38;;;;;;;40.00;28.77;;;5.10;99.90;;;;;;5047710;28;20448;-64
2021/11/12 10:20:10;;;;;;;61.80;32.70;;;5.10;99.90;;;;;;5052293;28;20440;-63
2021/11/12 10:22:39;;;;;;;48.23;29.60;;;5.20;99.90;;;;;;5052878;28;20472;-64
2021/11/12 10:25:08;;;;;;;47.60;31.73;;;4.80;99.90;;;;;;5052724;28;20459;-63
2021/11/12 10:27:36;;;;;;;51.10;31.60;;;4.60;99.90;;;;;;5051290;28;20447;-63
2021/11/12 10:30:10;;;;;;;57.87;33.97;;;4.70;99.90;;;;;;5052422;28;20459;-64
2021/11/12 10:32:39;;;;;;;61.50;30.40;;;4.80;99.90;;;;;;5052637;28;20447;-63
2021/11/12 10:35:18;;;;;;;46.57;29.53;;;4.50;99.90;;;;;;5052391;28;20480;-62
2021/11/12 10:37:45;;;;;;;47.60;31.23;;;4.40;99.90;;;;;;5051288;28;20447;-64
2021/11/12 10:40:14;;;;;;;42.10;30.60;;;4.40;99.90;;;;;;5052397;28;20444;-65
2021/11/12 10:42:43;;;;;;;36.33;28.50;;;4.70;99.90;;;;;;5052028;28;20969;-64
2021/11/12 10:45:14;;;;;;;43.90;29.30;;;4.80;99.90;;;;;;5052376;28;20821;-64
2021/11/12 10:47:46;;;;;;;33.57;26.87;;;5.00;99.90;;;;;;5051114;28;20965;-63
2021/11/12 10:50:15;;;;;;;35.67;27.63;;;5.00;99.90;;;;;;5052110;28;20540;-64
2021/11/12 10:52:42;;;;;;;36.28;27.23;;;5.20;99.90;;;;;;5051929;28;20447;-64
2021/11/12 10:55:12;;;;;;;35.30;28.40;;;5.10;99.90;;;;;;5051755;28;20222;-65
2021/11/12 10:57:41;;;;;;;34.70;25.70;;;5.00;99.90;;;;;;5051458;28;20455;-64
2021/11/12 11:00:13;;;;;;;34.37;26.20;;;5.20;99.90;;;;;;5052355;28;20454;-64
2021/11/12 11:02:43;;;;;;;40.00;28.90;;;5.30;99.90;;;;;;5052314;28;20530;-64
2021/11/12 11:05:13;;;;;;;34.40;28.67;;;5.40;99.90;;;;;;5052295;28;20454;-65
2021/11/12 11:07:42;;;;;;;37.87;28.17;;;5.40;99.90;;;;;;5050606;28;20452;-64
2021/11/12 11:10:22;;;;;;;38.10;30.13;;;5.50;99.90;;;;;;5051561;28;20527;-65
2021/11/12 11:12:49;;;;;;;38.47;28.90;;;5.50;99.90;;;;;;5051843;28;20448;-65
2021/11/12 11:15:32;;;;;;;54.00;35.60;;;5.60;99.90;;;;;;5051566;28;20473;-64
2021/11/12 11:18:18;;;;;;;53.00;34.90;;;5.70;99.90;;;;;;5050867;28;20463;-64
2021/11/12 11:20:45;;;;;;;49.13;34.27;;;5.50;99.90;;;;;;5051576;28;20453;-65
2021/11/12 11:23:14;;;;;;;48.57;35.50;;;5.50;99.90;;;;;;5051476;28;20540;-64
2021/11/12 11:25:49;;;;;;;47.10;35.10;;;5.60;99.90;;;;;;5051426;28;20518;-65
2021/11/12 11:28:16;;;;;;;53.93;36.80;;;5.80;99.90;;;;;;5050241;28;20454;-63
2021/11/12 11:30:46;;;;;;;48.57;35.83;;;5.90;99.90;;;;;;5051044;28;20539;-57
2021/11/12 11:33:15;;;;;;;55.27;37.97;;;5.90;99.90;;;;;;5051428;28;20449;-65
2021/11/12 11:35:46;;;;;;;51.20;36.13;;;6.10;99.90;;;;;;5051209;28;20511;-65
2021/11/12 11:38:16;;;;;;;50.23;36.70;;;6.20;99.90;;;;;;5050089;28;20453;-64
2021/11/12 11:40:46;;;;;;;52.77;37.23;;;6.20;99.90;;;;;;5051252;28;20455;-64
2021/11/12 11:43:15;;;;;;;49.70;36.47;;;6.40;99.90;;;;;;5051028;28;20959;-64
2021/11/12 11:45:43;;;;;;;49.43;33.43;;;6.20;99.90;;;;;;5051007;28;21047;-65
2021/11/12 11:48:13;;;;;;;48.10;36.57;;;6.20;99.90;;;;;;5049822;28;20979;-57
2021/11/12 11:50:49;;;;;;;53.10;37.90;;;6.20;99.90;;;;;;5051035;28;20452;-64
2021/11/12 11:53:30;;;;;;;48.40;33.37;;;6.30;99.90;;;;;;5050954;28;20444;-65
2021/11/12 11:56:13;;;;;;;48.47;34.20;;;6.30;99.90;;;;;;5050904;28;20484;-64
2021/11/12 11:58:42;;;;;;;52.50;37.07;;;6.20;99.90;;;;;;5050520;28;20440;-64
2021/11/12 12:01:34;;;;;;;51.40;36.23;;;6.10;99.90;;;;;;5050845;28;20455;-64
2021/11/12 12:04:35;;;;;;;50.80;36.10;;;5.90;99.90;;;;;;5051103;28;20461;-63
2021/11/12 12:07:40;;;;;;;56.70;37.63;;;5.80;99.90;;;;;;5049491;28;20993;-65
2021/11/12 12:10:24;;;;;;;51.87;37.77;;;5.40;99.90;;;;;;5050806;28;20494;-65
2021/11/12 12:13:05;;;;;;;52.47;37.57;;;5.40;99.90;;;;;;5050565;28;20453;-64
2021/11/12 12:15:40;;;;;;;60.33;38.43;;;5.40;99.90;;;;;;5050384;28;20491;-63
2021/11/12 12:18:22;;;;;;;60.83;36.67;;;5.40;99.90;;;;;;5049540;28;20816;-66
2021/11/12 12:36:22;;;;;;;59.83;40.03;;;5.90;99.90;;;;;;5047459;28;20492;-65
2021/11/12 13:22:38;;;;;;;44.73;34.07;;;5.50;99.90;;;;;;5029600;28;20417;-65
2021/11/12 13:25:07;;;;;;;45.23;34.47;;;5.60;99.90;;;;;;5029488;28;20444;-64
2021/11/12 13:27:34;;;;;;;49.57;35.50;;;5.80;99.90;;;;;;5028612;28;20439;-65
2021/11/12 13:30:01;;;;;;;46.27;36.20;;;6.00;99.90;;;;;;5029575;28;20848;-64
2021/11/12 13:32:34;;;;;;;43.00;33.23;;;6.00;99.90;;;;;;5029646;28;20445;-65
2021/11/12 13:35:01;;;;;;;43.87;33.60;;;6.20;99.90;;;;;;5029251;28;21002;-64
2021/11/12 13:37:28;;;;;;;47.23;33.17;;;6.20;99.90;;;;;;5028201;28;20465;-65
2021/11/12 13:40:09;;;;;;;39.77;32.17;;;6.20;99.90;;;;;;5029414;28;20455;-66
2021/11/12 13:42:41;;;;;;;58.50;36.73;;;5.90;99.90;;;;;;5029394;28;20450;-64
2021/11/12 13:45:16;;;;;;;44.27;34.33;;;5.80;99.90;;;;;;5029248;28;20446;-65
2021/11/12 13:47:45;;;;;;;49.37;33.97;;;5.60;99.90;;;;;;5028102;28;20965;-65
2021/11/12 13:50:17;;;;;;;46.63;34.37;;;5.40;99.90;;;;;;5029068;28;20449;-66
2021/11/12 13:52:44;;;;;;;51.37;37.77;;;5.50;99.90;;;;;;5029338;28;21030;-64
2021/11/12 13:55:15;;;;;;;49.90;34.83;;;5.40;99.90;;;;;;5032635;28;20479;-65
2021/11/12 13:57:55;;;;;;;47.93;36.20;;;5.40;99.90;;;;;;5032210;28;20453;-60
2021/11/12 14:00:26;;;;;;;44.20;34.10;;;5.30;99.90;;;;;;5033050;28;20487;-66
2021/11/12 14:02:59;;;;;;;53.80;36.93;;;5.30;99.90;;;;;;5033156;28;20626;-65
2021/11/12 14:05:26;;;;;;;59.23;37.73;;;5.20;99.90;;;;;;5032996;28;20445;-65
2021/11/12 14:08:04;;;;;;;53.97;36.60;;;5.10;99.90;;;;;;5031548;28;20822;-63
2021/11/12 14:10:36;;;;;;;58.30;38.40;;;5.10;99.90;;;;;;5032657;28;20471;-64
2021/11/12 14:13:06;;;;;;;62.00;41.20;;;5.10;99.90;;;;;;5032667;28;20864;-65
2021/11/12 14:15:36;;;;;;;63.10;39.10;;;5.10;99.90;;;;;;5032627;28;21005;-64
2021/11/12 14:18:14;;;;;;;59.00;40.80;;;5.00;99.90;;;;;;5031819;28;20449;-63
2021/11/12 14:20:45;;;;;;;62.33;39.43;;;4.90;99.90;;;;;;5032452;28;20578;-64
2021/11/12 14:23:15;;;;;;;62.57;42.47;;;4.80;99.90;;;;;;5032561;28;20476;-65
2021/11/12 14:28:51;;;;;;;66.60;39.20;;;4.70;99.90;;;;;;5007198;28;20519;-64
2021/11/12 14:31:45;;;;;;;56.60;39.47;;;4.70;99.90;;;;;;5032634;28;20445;-66
2021/11/12 14:34:26;;;;;;;56.13;36.60;;;4.60;99.90;;;;;;5032418;28;20452;-63
2021/11/12 14:36:56;;;;;;;49.97;34.17;;;4.60;99.90;;;;;;5031326;28;20492;-64
2021/11/12 14:45:11;;;;;;;61.47;39.37;;;4.30;99.90;;;;;;5032339;28;20470;-65
2021/11/12 14:47:43;;;;;;;60.40;38.33;;;4.10;99.90;;;;;;5029258;28;20488;-65
2021/11/12 14:50:32;;;;;;;62.80;39.70;;;4.10;99.90;;;;;;5044719;28;20510;-65
2021/11/12 14:53:05;;;;;;;50.00;35.60;;;4.10;99.90;;;;;;5045492;28;20470;-65
2021/11/12 14:55:33;;;;;;;51.50;35.83;;;4.00;99.90;;;;;;5049601;28;20497;-64
2021/11/12 14:58:00;;;;;;;59.60;36.23;;;4.00;99.90;;;;;;5049658;28;20831;-65
2021/11/12 15:00:28;;;;;;;56.43;38.67;;;4.00;99.90;;;;;;5050813;28;20526;-67
2021/11/12 15:02:55;;;;;;;65.80;40.00;;;4.00;99.90;;;;;;5050854;28;20459;-65
2021/11/12 15:05:25;;;;;;;61.17;38.10;;;4.00;99.90;;;;;;5050575;28;20444;-66
2021/11/12 15:07:56;;;;;;;60.03;37.67;;;4.00;99.90;;;;;;5049833;28;20456;-65
2021/11/12 15:10:27;;;;;;;61.37;37.87;;;3.90;99.90;;;;;;5050924;28;20451;-68
2021/11/12 15:12:53;;;;;;;54.10;35.27;;;4.00;99.90;;;;;;5050961;28;20964;-67
2021/11/12 15:15:21;;;;;;;56.77;37.73;;;4.10;99.90;;;;;;5051009;28;20573;-64
2021/11/12 15:17:50;;;;;;;66.33;36.70;;;4.00;99.90;;;;;;5049480;28;20525;-65
2021/11/12 15:20:17;;;;;;;64.23;38.20;;;3.90;99.90;;;;;;5049937;28;20451;-65
2021/11/12 15:22:57;;;;;;;54.60;33.60;;;3.90;99.90;;;;;;5046707;28;20470;-65
2021/11/12 15:25:29;;;;;;;58.93;36.27;;;3.80;99.90;;;;;;5049972;28;20527;-65
2021/11/12 15:28:02;;;;;;;61.80;37.30;;;3.80;99.90;;;;;;5049267;28;20448;-65
2021/11/12 15:30:32;;;;;;;61.50;36.13;;;3.70;99.90;;;;;;5050315;28;20867;-66
2021/11/12 15:33:03;;;;;;;69.77;35.70;;;3.80;99.90;;;;;;5050227;28;20883;-66
2021/11/12 15:35:31;;;;;;;63.87;36.77;;;3.80;99.90;;;;;;5050291;28;20484;-65
2021/11/12 15:38:03;;;;;;;60.77;36.27;;;3.80;99.90;;;;;;5048962;28;20469;-65
2021/11/12 15:40:33;;;;;;;63.37;37.70;;;3.90;99.90;;;;;;5044040;28;20440;-65
2021/11/12 15:43:11;;;;;;;57.90;35.97;;;3.90;99.90;;;;;;5050195;28;20455;-65
2021/11/12 15:45:52;;;;;;;60.73;35.47;;;3.90;99.90;;;;;;5050301;28;20529;-66
2021/11/12 15:48:20;;;;;;;59.27;36.17;;;4.00;99.90;;;;;;5048876;28;20440;-68
2021/11/12 15:50:54;;;;;;;64.20;37.27;;;4.10;99.90;;;;;;5049666;28;20475;-66
2021/11/12 15:53:26;;;;;;;62.40;34.80;;;4.10;99.90;;;;;;5049796;28;20447;-66
2021/11/12 15:56:07;;;;;;;51.30;34.50;;;4.00;99.90;;;;;;5049707;28;20544;-67
2021/11/12 15:58:49;;;;;;;55.60;33.37;;;4.00;99.90;;;;;;5048934;28;20452;-66
2021/11/12 16:09:59;;;;;;;53.07;29.90;;;4.00;99.90;;;;;;5036475;28;20493;-65
2021/11/12 16:15:13;;;;;;;65.60;32.03;;;3.80;99.90;;;;;;5049499;28;20791;-65
2021/11/12 16:17:47;;;;;;;73.37;30.37;;;3.80;99.90;;;;;;5046913;28;20463;-66
2021/11/12 16:20:35;;;;;;;61.33;34.10;;;3.70;99.90;;;;;;5046763;28;20449;-66
2021/11/12 16:25:44;;;;;;;66.63;34.60;;;3.70;99.90;;;;;;5035424;28;20443;-66
2021/11/12 16:28:17;;;;;;;56.73;33.03;;;3.70;99.90;;;;;;5038977;28;20470;-66
2021/11/12 16:30:49;;;;;;;45.90;28.73;;;3.80;99.90;;;;;;5041036;28;20460;-66
2021/11/12 16:33:15;;;;;;;49.80;28.87;;;3.80;99.90;;;;;;5043434;28;20942;-66
2021/11/12 16:35:43;;;;;;;49.53;30.43;;;3.80;99.90;;;;;;5042461;28;21079;-65
2021/11/12 16:38:15;;;;;;;83.30;33.13;;;3.80;99.90;;;;;;5046592;28;20449;-66
2021/11/12 16:40:46;;;;;;;40.30;27.93;;;3.80;99.90;;;;;;5046194;28;20462;-65